sensor_id;sensor_type;location;lat;lon;timestamp;P1;durP1;ratioP1;P2;durP2;ratioP2
70270;SDS011;57680;54.292;18.598;2022-08-01T00:00:25;8.77;;;4.20;;
70270;SDS011;57680;54.292;18.598;2022-08-01T00:02:51;9.32;;;4.32;;
70270;SDS011;57680;54.292;18.598;2022-08-01T00:05:16;9.40;;;4.70;;
70270;SDS011;57680;54.292;18.598;2022-08-01T00:07:42;8.90;;;4.43;;
70270;SDS011;57680;54.292;18.598;2022-08-01T00:10:08;7.20;;;4.13;;
70270;SDS011;57680;54.292;18.598;2022-08-01T00:12:36;8.68;;;4.70;;
70270;SDS011;57680;54.292;18.598;2022-08-01T00:15:03;8.68;;;4.53;;
70270;SDS011;57680;54.292;18.598;2022-08-01T00:17:30;11.97;;;5.00;;
70270;SDS011;57680;54.292;18.598;2022-08-01T00:19:56;10.15;;;4.70;;
70270;SDS011;57680;54.292;18.598;2022-08-01T00:22:21;9.37;;;5.13;;
70270;SDS011;57680;54.292;18.598;2022-08-01T00:24:47;9.40;;;4.70;;
70270;SDS011;57680;54.292;18.598;2022-08-01T00:27:13;10.40;;;5.10;;
70270;SDS011;57680;54.292;18.598;2022-08-01T00:29:38;8.85;;;4.82;;
70270;SDS011;57680;54.292;18.598;2022-08-01T00:32:04;9.57;;;4.70;;
70270;SDS011;57680;54.292;18.598;2022-08-01T00:34:29;8.40;;;4.73;;
70270;SDS011;57680;54.292;18.598;2022-08-01T00:36:55;8.73;;;4.80;;
70270;SDS011;57680;54.292;18.598;2022-08-01T00:39:20;11.20;;;4.83;;
70270;SDS011;57680;54.292;18.598;2022-08-01T00:41:46;10.68;;;5.25;;
70270;SDS011;57680;54.292;18.598;2022-08-01T00:44:11;9.43;;;5.13;;
70270;SDS011;57680;54.292;18.598;2022-08-01T00:46:37;8.73;;;4.80;;
70270;SDS011;57680;54.292;18.598;2022-08-01T00:49:03;9.35;;;4.63;;
70270;SDS011;57680;54.292;18.598;2022-08-01T00:51:28;9.03;;;4.83;;
70270;SDS011;57680;54.292;18.598;2022-08-01T00:53:54;10.55;;;5.30;;
70270;SDS011;57680;54.292;18.598;2022-08-01T00:56:21;9.75;;;4.65;;
70270;SDS011;57680;54.292;18.598;2022-08-01T00:58:49;10.00;;;4.50;;
70270;SDS011;57680;54.292;18.598;2022-08-01T01:01:15;8.77;;;4.90;;
70270;SDS011;57680;54.292;18.598;2022-08-01T01:03:40;9.17;;;4.60;;
70270;SDS011;57680;54.292;18.598;2022-08-01T01:06:14;10.85;;;5.28;;
70270;SDS011;57680;54.292;18.598;2022-08-01T01:14:34;11.30;;;5.05;;
70270;SDS011;57680;54.292;18.598;2022-08-01T01:17:11;7.90;;;4.57;;
70270;SDS011;57680;54.292;18.598;2022-08-01T01:19:47;9.27;;;4.70;;
70270;SDS011;57680;54.292;18.598;2022-08-01T01:22:27;8.48;;;4.75;;
70270;SDS011;57680;54.292;18.598;2022-08-01T01:25:24;8.95;;;4.88;;
70270;SDS011;57680;54.292;18.598;2022-08-01T01:28:17;9.23;;;4.80;;
70270;SDS011;57680;54.292;18.598;2022-08-01T01:30:53;10.20;;;4.70;;
70270;SDS011;57680;54.292;18.598;2022-08-01T01:33:22;8.93;;;4.80;;
70270;SDS011;57680;54.292;18.598;2022-08-01T01:35:51;10.68;;;5.25;;
70270;SDS011;57680;54.292;18.598;2022-08-01T01:38:21;10.05;;;4.85;;
70270;SDS011;57680;54.292;18.598;2022-08-01T01:40:51;9.13;;;4.95;;
70270;SDS011;57680;54.292;18.598;2022-08-01T01:43:18;9.10;;;4.70;;
70270;SDS011;57680;54.292;18.598;2022-08-01T01:45:45;9.57;;;4.63;;
70270;SDS011;57680;54.292;18.598;2022-08-01T01:48:13;8.98;;;4.82;;
70270;SDS011;57680;54.292;18.598;2022-08-01T01:50:42;10.05;;;4.65;;
70270;SDS011;57680;54.292;18.598;2022-08-01T01:53:10;8.77;;;5.00;;
70270;SDS011;57680;54.292;18.598;2022-08-01T01:55:39;12.27;;;4.90;;
70270;SDS011;57680;54.292;18.598;2022-08-01T01:58:06;8.77;;;4.60;;
70270;SDS011;57680;54.292;18.598;2022-08-01T02:00:34;9.25;;;4.43;;
70270;SDS011;57680;54.292;18.598;2022-08-01T02:03:00;9.38;;;4.65;;
70270;SDS011;57680;54.292;18.598;2022-08-01T02:05:28;8.70;;;4.78;;
70270;SDS011;57680;54.292;18.598;2022-08-01T02:07:55;9.07;;;4.80;;
70270;SDS011;57680;54.292;18.598;2022-08-01T02:10:22;8.07;;;4.53;;
70270;SDS011;57680;54.292;18.598;2022-08-01T02:12:49;10.57;;;4.53;;
70270;SDS011;57680;54.292;18.598;2022-08-01T02:15:15;10.55;;;4.43;;
70270;SDS011;57680;54.292;18.598;2022-08-01T02:17:45;9.70;;;4.68;;
70270;SDS011;57680;54.292;18.598;2022-08-01T02:20:13;7.67;;;4.80;;
70270;SDS011;57680;54.292;18.598;2022-08-01T02:22:44;9.70;;;4.80;;
70270;SDS011;57680;54.292;18.598;2022-08-01T02:27:55;7.30;;;4.00;;
70270;SDS011;57680;54.292;18.598;2022-08-01T02:30:32;8.65;;;4.78;;
70270;SDS011;57680;54.292;18.598;2022-08-01T02:33:03;7.82;;;4.80;;
70270;SDS011;57680;54.292;18.598;2022-08-01T02:35:33;6.95;;;4.18;;
70270;SDS011;57680;54.292;18.598;2022-08-01T02:38:03;7.78;;;4.03;;
70270;SDS011;57680;54.292;18.598;2022-08-01T02:40:34;7.40;;;4.20;;
70270;SDS011;57680;54.292;18.598;2022-08-01T02:43:03;7.78;;;4.00;;
70270;SDS011;57680;54.292;18.598;2022-08-01T02:45:30;8.43;;;4.32;;
70270;SDS011;57680;54.292;18.598;2022-08-01T02:48:01;7.00;;;3.97;;
70270;SDS011;57680;54.292;18.598;2022-08-01T02:50:34;7.38;;;3.90;;
70270;SDS011;57680;54.292;18.598;2022-08-01T02:53:01;8.20;;;4.40;;
70270;SDS011;57680;54.292;18.598;2022-08-01T02:55:27;7.72;;;4.05;;
70270;SDS011;57680;54.292;18.598;2022-08-01T02:57:55;6.88;;;4.00;;
70270;SDS011;57680;54.292;18.598;2022-08-01T03:00:22;8.20;;;4.40;;
70270;SDS011;57680;54.292;18.598;2022-08-01T03:02:49;11.38;;;4.43;;
70270;SDS011;57680;54.292;18.598;2022-08-01T03:05:20;7.77;;;4.23;;
70270;SDS011;57680;54.292;18.598;2022-08-01T03:07:46;7.28;;;3.63;;
70270;SDS011;57680;54.292;18.598;2022-08-01T03:10:13;8.85;;;3.88;;
70270;SDS011;57680;54.292;18.598;2022-08-01T03:12:41;6.60;;;3.70;;
70270;SDS011;57680;54.292;18.598;2022-08-01T03:15:09;8.18;;;3.75;;
70270;SDS011;57680;54.292;18.598;2022-08-01T03:17:36;6.40;;;3.10;;
70270;SDS011;57680;54.292;18.598;2022-08-01T03:20:04;6.60;;;3.40;;
70270;SDS011;57680;54.292;18.598;2022-08-01T03:22:30;9.48;;;3.25;;
70270;SDS011;57680;54.292;18.598;2022-08-01T03:24:58;6.78;;;3.30;;
70270;SDS011;57680;54.292;18.598;2022-08-01T03:27:24;5.75;;;3.20;;
70270;SDS011;57680;54.292;18.598;2022-08-01T03:29:51;5.40;;;2.80;;
70270;SDS011;57680;54.292;18.598;2022-08-01T03:32:19;8.13;;;3.20;;
70270;SDS011;57680;54.292;18.598;2022-08-01T03:34:46;5.85;;;3.00;;
70270;SDS011;57680;54.292;18.598;2022-08-01T03:37:19;7.33;;;3.00;;
70270;SDS011;57680;54.292;18.598;2022-08-01T03:40:09;5.10;;;2.63;;
70270;SDS011;57680;54.292;18.598;2022-08-01T03:42:44;6.57;;;2.65;;
70270;SDS011;57680;54.292;18.598;2022-08-01T03:45:15;6.05;;;2.65;;
70270;SDS011;57680;54.292;18.598;2022-08-01T03:47:46;5.45;;;2.60;;
70270;SDS011;57680;54.292;18.598;2022-08-01T03:50:14;5.47;;;2.23;;
70270;SDS011;57680;54.292;18.598;2022-08-01T03:52:42;5.07;;;2.30;;
70270;SDS011;57680;54.292;18.598;2022-08-01T03:55:10;4.75;;;2.30;;
70270;SDS011;57680;54.292;18.598;2022-08-01T03:57:37;5.75;;;2.60;;
70270;SDS011;57680;54.292;18.598;2022-08-01T04:00:05;5.85;;;2.40;;
70270;SDS011;57680;54.292;18.598;2022-08-01T04:02:33;3.33;;;1.93;;
70270;SDS011;57680;54.292;18.598;2022-08-01T04:04:59;5.88;;;2.50;;
70270;SDS011;57680;54.292;18.598;2022-08-01T04:07:29;5.28;;;2.30;;
70270;SDS011;57680;54.292;18.598;2022-08-01T04:09:57;5.40;;;2.15;;
70270;SDS011;57680;54.292;18.598;2022-08-01T04:12:22;3.93;;;2.00;;
70270;SDS011;57680;54.292;18.598;2022-08-01T04:14:49;4.10;;;2.10;;
70270;SDS011;57680;54.292;18.598;2022-08-01T04:17:17;5.78;;;2.20;;
70270;SDS011;57680;54.292;18.598;2022-08-01T04:19:43;5.43;;;2.17;;
70270;SDS011;57680;54.292;18.598;2022-08-01T04:22:10;4.90;;;2.30;;
70270;SDS011;57680;54.292;18.598;2022-08-01T04:24:40;3.78;;;1.90;;
70270;SDS011;57680;54.292;18.598;2022-08-01T04:27:11;3.90;;;1.92;;
70270;SDS011;57680;54.292;18.598;2022-08-01T04:29:39;5.25;;;2.00;;
70270;SDS011;57680;54.292;18.598;2022-08-01T04:32:07;5.03;;;2.30;;
70270;SDS011;57680;54.292;18.598;2022-08-01T04:34:36;4.80;;;1.98;;
70270;SDS011;57680;54.292;18.598;2022-08-01T04:37:05;5.15;;;2.20;;
70270;SDS011;57680;54.292;18.598;2022-08-01T04:39:34;6.90;;;2.25;;
70270;SDS011;57680;54.292;18.598;2022-08-01T04:42:01;4.28;;;1.90;;
70270;SDS011;57680;54.292;18.598;2022-08-01T04:44:29;4.33;;;2.17;;
70270;SDS011;57680;54.292;18.598;2022-08-01T04:46:57;4.70;;;2.00;;
70270;SDS011;57680;54.292;18.598;2022-08-01T04:49:26;4.20;;;2.03;;
70270;SDS011;57680;54.292;18.598;2022-08-01T04:51:53;3.97;;;2.00;;
70270;SDS011;57680;54.292;18.598;2022-08-01T04:54:28;5.20;;;2.30;;
70270;SDS011;57680;54.292;18.598;2022-08-01T04:56:55;7.53;;;2.53;;
70270;SDS011;57680;54.292;18.598;2022-08-01T04:59:27;5.20;;;2.30;;
70270;SDS011;57680;54.292;18.598;2022-08-01T05:04:32;5.63;;;1.90;;
70270;SDS011;57680;54.292;18.598;2022-08-01T05:06:58;4.53;;;1.97;;
70270;SDS011;57680;54.292;18.598;2022-08-01T05:09:23;8.20;;;2.13;;
70270;SDS011;57680;54.292;18.598;2022-08-01T05:11:49;5.70;;;2.10;;
70270;SDS011;57680;54.292;18.598;2022-08-01T05:14:14;5.63;;;2.20;;
70270;SDS011;57680;54.292;18.598;2022-08-01T05:16:40;8.83;;;2.20;;
70270;SDS011;57680;54.292;18.598;2022-08-01T05:19:06;6.55;;;2.30;;
70270;SDS011;57680;54.292;18.598;2022-08-01T05:21:33;8.30;;;2.20;;
70270;SDS011;57680;54.292;18.598;2022-08-01T05:23:59;6.67;;;2.30;;
70270;SDS011;57680;54.292;18.598;2022-08-01T05:26:25;8.45;;;2.28;;
70270;SDS011;57680;54.292;18.598;2022-08-01T05:28:50;7.10;;;2.00;;
70270;SDS011;57680;54.292;18.598;2022-08-01T05:31:16;6.43;;;2.13;;
70270;SDS011;57680;54.292;18.598;2022-08-01T05:33:41;7.35;;;2.40;;
70270;SDS011;57680;54.292;18.598;2022-08-01T05:36:07;7.07;;;2.20;;
70270;SDS011;57680;54.292;18.598;2022-08-01T05:38:32;7.93;;;2.20;;
70270;SDS011;57680;54.292;18.598;2022-08-01T05:40:58;7.20;;;2.13;;
70270;SDS011;57680;54.292;18.598;2022-08-01T05:43:23;8.27;;;1.93;;
70270;SDS011;57680;54.292;18.598;2022-08-01T05:45:49;6.05;;;2.13;;
70270;SDS011;57680;54.292;18.598;2022-08-01T05:48:15;5.23;;;1.80;;
70270;SDS011;57680;54.292;18.598;2022-08-01T05:50:40;7.95;;;2.05;;
70270;SDS011;57680;54.292;18.598;2022-08-01T05:53:06;4.37;;;1.80;;
70270;SDS011;57680;54.292;18.598;2022-08-01T05:55:31;5.73;;;2.20;;
70270;SDS011;57680;54.292;18.598;2022-08-01T05:57:57;5.95;;;2.05;;
70270;SDS011;57680;54.292;18.598;2022-08-01T06:00:22;6.50;;;2.20;;
70270;SDS011;57680;54.292;18.598;2022-08-01T06:02:48;12.32;;;2.00;;
70270;SDS011;57680;54.292;18.598;2022-08-01T06:05:14;6.77;;;2.10;;
70270;SDS011;57680;54.292;18.598;2022-08-01T06:07:40;5.20;;;2.03;;
70270;SDS011;57680;54.292;18.598;2022-08-01T06:10:06;7.60;;;2.20;;
70270;SDS011;57680;54.292;18.598;2022-08-01T06:12:33;6.75;;;2.40;;
70270;SDS011;57680;54.292;18.598;2022-08-01T06:14:58;7.30;;;2.22;;
70270;SDS011;57680;54.292;18.598;2022-08-01T06:17:24;7.20;;;1.83;;
70270;SDS011;57680;54.292;18.598;2022-08-01T06:19:50;5.57;;;1.73;;
70270;SDS011;57680;54.292;18.598;2022-08-01T06:22:16;6.03;;;2.07;;
70270;SDS011;57680;54.292;18.598;2022-08-01T06:24:41;5.25;;;1.80;;
70270;SDS011;57680;54.292;18.598;2022-08-01T06:27:07;5.73;;;1.90;;
70270;SDS011;57680;54.292;18.598;2022-08-01T06:29:32;7.40;;;2.10;;
70270;SDS011;57680;54.292;18.598;2022-08-01T06:31:58;4.77;;;1.73;;
70270;SDS011;57680;54.292;18.598;2022-08-01T06:34:24;5.40;;;1.97;;
70270;SDS011;57680;54.292;18.598;2022-08-01T06:36:49;4.50;;;1.73;;
70270;SDS011;57680;54.292;18.598;2022-08-01T06:39:15;9.37;;;2.10;;
70270;SDS011;57680;54.292;18.598;2022-08-01T06:41:40;8.50;;;2.10;;
70270;SDS011;57680;54.292;18.598;2022-08-01T06:44:07;8.23;;;1.93;;
70270;SDS011;57680;54.292;18.598;2022-08-01T06:46:33;4.53;;;1.80;;
70270;SDS011;57680;54.292;18.598;2022-08-01T06:48:59;5.88;;;2.25;;
70270;SDS011;57680;54.292;18.598;2022-08-01T06:51:25;5.47;;;1.60;;
70270;SDS011;57680;54.292;18.598;2022-08-01T06:53:50;4.38;;;1.60;;
70270;SDS011;57680;54.292;18.598;2022-08-01T06:56:16;4.17;;;1.60;;
70270;SDS011;57680;54.292;18.598;2022-08-01T06:58:42;8.02;;;1.70;;
70270;SDS011;57680;54.292;18.598;2022-08-01T07:01:07;3.77;;;1.60;;
70270;SDS011;57680;54.292;18.598;2022-08-01T07:03:33;3.70;;;1.30;;
70270;SDS011;57680;54.292;18.598;2022-08-01T07:05:59;5.80;;;1.60;;
70270;SDS011;57680;54.292;18.598;2022-08-01T07:08:25;6.55;;;1.42;;
70270;SDS011;57680;54.292;18.598;2022-08-01T07:10:50;3.73;;;1.57;;
70270;SDS011;57680;54.292;18.598;2022-08-01T07:13:16;5.37;;;1.67;;
70270;SDS011;57680;54.292;18.598;2022-08-01T07:15:46;4.15;;;1.40;;
70270;SDS011;57680;54.292;18.598;2022-08-01T07:18:12;5.80;;;1.80;;
70270;SDS011;57680;54.292;18.598;2022-08-01T07:20:38;5.60;;;1.40;;
70270;SDS011;57680;54.292;18.598;2022-08-01T07:23:05;3.00;;;1.38;;
70270;SDS011;57680;54.292;18.598;2022-08-01T07:25:30;4.07;;;1.50;;
70270;SDS011;57680;54.292;18.598;2022-08-01T07:27:56;5.40;;;1.80;;
70270;SDS011;57680;54.292;18.598;2022-08-01T07:30:21;3.30;;;1.40;;
70270;SDS011;57680;54.292;18.598;2022-08-01T07:32:47;5.63;;;1.33;;
70270;SDS011;57680;54.292;18.598;2022-08-01T07:35:12;5.07;;;1.55;;
70270;SDS011;57680;54.292;18.598;2022-08-01T07:37:38;4.67;;;1.60;;
70270;SDS011;57680;54.292;18.598;2022-08-01T07:40:04;4.85;;;1.40;;
70270;SDS011;57680;54.292;18.598;2022-08-01T07:42:30;6.47;;;1.40;;
70270;SDS011;57680;54.292;18.598;2022-08-01T07:44:56;3.45;;;1.08;;
70270;SDS011;57680;54.292;18.598;2022-08-01T07:47:25;5.20;;;1.58;;
70270;SDS011;57680;54.292;18.598;2022-08-01T07:49:51;3.00;;;1.50;;
70270;SDS011;57680;54.292;18.598;2022-08-01T07:52:18;3.65;;;1.63;;
70270;SDS011;57680;54.292;18.598;2022-08-01T07:54:43;4.28;;;1.58;;
70270;SDS011;57680;54.292;18.598;2022-08-01T07:57:09;4.63;;;1.60;;
70270;SDS011;57680;54.292;18.598;2022-08-01T07:59:34;5.43;;;1.73;;
70270;SDS011;57680;54.292;18.598;2022-08-01T08:02:00;3.53;;;1.40;;
70270;SDS011;57680;54.292;18.598;2022-08-01T08:04:26;5.03;;;1.67;;
70270;SDS011;57680;54.292;18.598;2022-08-01T08:06:52;4.77;;;1.60;;
70270;SDS011;57680;54.292;18.598;2022-08-01T08:09:18;4.28;;;1.20;;
70270;SDS011;57680;54.292;18.598;2022-08-01T08:11:45;5.63;;;1.60;;
70270;SDS011;57680;54.292;18.598;2022-08-01T08:14:11;4.28;;;1.42;;
70270;SDS011;57680;54.292;18.598;2022-08-01T08:16:37;4.10;;;1.50;;
70270;SDS011;57680;54.292;18.598;2022-08-01T08:19:03;4.60;;;1.45;;
70270;SDS011;57680;54.292;18.598;2022-08-01T08:21:29;4.88;;;1.23;;
70270;SDS011;57680;54.292;18.598;2022-08-01T08:23:55;6.13;;;1.40;;
70270;SDS011;57680;54.292;18.598;2022-08-01T08:26:39;6.97;;;1.98;;
70270;SDS011;57680;54.292;18.598;2022-08-01T08:29:05;5.37;;;1.70;;
70270;SDS011;57680;54.292;18.598;2022-08-01T08:31:31;4.72;;;1.60;;
70270;SDS011;57680;54.292;18.598;2022-08-01T08:33:57;4.23;;;1.50;;
70270;SDS011;57680;54.292;18.598;2022-08-01T08:36:22;4.07;;;1.60;;
70270;SDS011;57680;54.292;18.598;2022-08-01T08:38:48;3.93;;;1.30;;
70270;SDS011;57680;54.292;18.598;2022-08-01T08:41:13;3.43;;;1.40;;
70270;SDS011;57680;54.292;18.598;2022-08-01T08:43:39;3.13;;;1.60;;
70270;SDS011;57680;54.292;18.598;2022-08-01T08:46:05;4.70;;;1.30;;
70270;SDS011;57680;54.292;18.598;2022-08-01T08:48:33;5.63;;;1.52;;
70270;SDS011;57680;54.292;18.598;2022-08-01T08:51:00;4.75;;;1.45;;
70270;SDS011;57680;54.292;18.598;2022-08-01T08:53:26;5.20;;;1.20;;
70270;SDS011;57680;54.292;18.598;2022-08-01T08:55:52;6.13;;;1.40;;
70270;SDS011;57680;54.292;18.598;2022-08-01T08:58:19;3.08;;;1.27;;
70270;SDS011;57680;54.292;18.598;2022-08-01T09:00:46;3.30;;;1.20;;
70270;SDS011;57680;54.292;18.598;2022-08-01T09:03:12;3.55;;;1.40;;
70270;SDS011;57680;54.292;18.598;2022-08-01T09:05:38;3.47;;;1.17;;
70270;SDS011;57680;54.292;18.598;2022-08-01T09:08:07;4.43;;;1.30;;
70270;SDS011;57680;54.292;18.598;2022-08-01T09:10:33;4.20;;;1.40;;
70270;SDS011;57680;54.292;18.598;2022-08-01T09:13:09;3.05;;;1.35;;
70270;SDS011;57680;54.292;18.598;2022-08-01T09:15:46;4.55;;;1.60;;
70270;SDS011;57680;54.292;18.598;2022-08-01T09:21:10;5.45;;;1.20;;
70270;SDS011;57680;54.292;18.598;2022-08-01T09:26:18;3.35;;;1.30;;
70270;SDS011;57680;54.292;18.598;2022-08-01T09:28:45;6.00;;;1.48;;
70270;SDS011;57680;54.292;18.598;2022-08-01T09:31:13;2.60;;;1.20;;
70270;SDS011;57680;54.292;18.598;2022-08-01T09:33:48;4.45;;;1.40;;
70270;SDS011;57680;54.292;18.598;2022-08-01T09:36:45;3.40;;;1.37;;
70270;SDS011;57680;54.292;18.598;2022-08-01T09:39:21;4.20;;;1.40;;
70270;SDS011;57680;54.292;18.598;2022-08-01T09:41:48;2.72;;;1.33;;
70270;SDS011;57680;54.292;18.598;2022-08-01T09:44:15;5.20;;;1.40;;
70270;SDS011;57680;54.292;18.598;2022-08-01T09:49:31;5.20;;;1.23;;
70270;SDS011;57680;54.292;18.598;2022-08-01T09:52:20;3.80;;;1.65;;
70270;SDS011;57680;54.292;18.598;2022-08-01T09:54:54;3.88;;;1.60;;
70270;SDS011;57680;54.292;18.598;2022-08-01T09:57:24;4.30;;;1.70;;
70270;SDS011;57680;54.292;18.598;2022-08-01T09:59:55;6.10;;;2.05;;
70270;SDS011;57680;54.292;18.598;2022-08-01T10:05:01;5.00;;;1.73;;
70270;SDS011;57680;54.292;18.598;2022-08-01T10:07:31;5.75;;;1.88;;
70270;SDS011;57680;54.292;18.598;2022-08-01T10:10:08;4.97;;;1.60;;
70270;SDS011;57680;54.292;18.598;2022-08-01T10:12:35;4.57;;;2.00;;
70270;SDS011;57680;54.292;18.598;2022-08-01T10:15:02;6.15;;;1.83;;
70270;SDS011;57680;54.292;18.598;2022-08-01T10:17:29;5.07;;;1.70;;
70270;SDS011;57680;54.292;18.598;2022-08-01T10:19:55;4.95;;;1.90;;
70270;SDS011;57680;54.292;18.598;2022-08-01T10:22:22;5.37;;;1.53;;
70270;SDS011;57680;54.292;18.598;2022-08-01T10:24:50;6.70;;;1.88;;
70270;SDS011;57680;54.292;18.598;2022-08-01T10:27:20;4.03;;;1.80;;
70270;SDS011;57680;54.292;18.598;2022-08-01T10:29:51;6.32;;;1.85;;
70270;SDS011;57680;54.292;18.598;2022-08-01T10:32:21;6.35;;;1.98;;
70270;SDS011;57680;54.292;18.598;2022-08-01T10:34:48;10.33;;;2.00;;
70270;SDS011;57680;54.292;18.598;2022-08-01T10:37:14;5.72;;;1.90;;
70270;SDS011;57680;54.292;18.598;2022-08-01T10:39:42;7.03;;;1.60;;
70270;SDS011;57680;54.292;18.598;2022-08-01T10:42:09;6.10;;;1.70;;
70270;SDS011;57680;54.292;18.598;2022-08-01T10:44:35;3.97;;;1.80;;
70270;SDS011;57680;54.292;18.598;2022-08-01T10:47:07;5.33;;;1.87;;
70270;SDS011;57680;54.292;18.598;2022-08-01T10:49:45;4.65;;;1.90;;
70270;SDS011;57680;54.292;18.598;2022-08-01T10:52:19;5.78;;;1.65;;
70270;SDS011;57680;54.292;18.598;2022-08-01T10:54:45;9.15;;;2.10;;
70270;SDS011;57680;54.292;18.598;2022-08-01T10:57:12;4.05;;;1.60;;
70270;SDS011;57680;54.292;18.598;2022-08-01T10:59:48;8.40;;;2.10;;
70270;SDS011;57680;54.292;18.598;2022-08-01T11:02:33;9.75;;;1.90;;
70270;SDS011;57680;54.292;18.598;2022-08-01T11:05:03;6.93;;;2.08;;
70270;SDS011;57680;54.292;18.598;2022-08-01T11:07:41;3.85;;;1.60;;
70270;SDS011;57680;54.292;18.598;2022-08-01T11:10:17;5.47;;;1.90;;
70270;SDS011;57680;54.292;18.598;2022-08-01T11:12:48;7.53;;;1.90;;
70270;SDS011;57680;54.292;18.598;2022-08-01T11:20:25;6.88;;;1.80;;
70270;SDS011;57680;54.292;18.598;2022-08-01T11:25:26;6.57;;;1.80;;
70270;SDS011;57680;54.292;18.598;2022-08-01T11:39:10;4.45;;;1.50;;
70270;SDS011;57680;54.292;18.598;2022-08-01T11:41:32;3.53;;;1.40;;
70270;SDS011;57680;54.292;18.598;2022-08-01T11:52:16;4.70;;;1.80;;
70270;SDS011;57680;54.292;18.598;2022-08-01T11:54:51;4.10;;;1.90;;
70270;SDS011;57680;54.292;18.598;2022-08-01T11:57:26;5.00;;;1.90;;
70270;SDS011;57680;54.292;18.598;2022-08-01T11:59:59;5.70;;;1.90;;
70270;SDS011;57680;54.292;18.598;2022-08-01T12:02:29;5.05;;;1.90;;
70270;SDS011;57680;54.292;18.598;2022-08-01T12:07:31;6.43;;;1.97;;
70270;SDS011;57680;54.292;18.598;2022-08-01T12:12:40;4.07;;;2.00;;
70270;SDS011;57680;54.292;18.598;2022-08-01T12:15:10;5.72;;;1.90;;
70270;SDS011;57680;54.292;18.598;2022-08-01T12:17:37;4.38;;;1.88;;
70270;SDS011;57680;54.292;18.598;2022-08-01T12:20:09;5.00;;;2.00;;
70270;SDS011;57680;54.292;18.598;2022-08-01T12:22:36;6.45;;;2.00;;
70270;SDS011;57680;54.292;18.598;2022-08-01T12:25:09;5.25;;;1.80;;
70270;SDS011;57680;54.292;18.598;2022-08-01T12:27:36;4.15;;;1.70;;
70270;SDS011;57680;54.292;18.598;2022-08-01T12:30:07;4.10;;;1.80;;
70270;SDS011;57680;54.292;18.598;2022-08-01T12:32:34;5.00;;;1.83;;
70270;SDS011;57680;54.292;18.598;2022-08-01T12:35:07;3.70;;;1.90;;
70270;SDS011;57680;54.292;18.598;2022-08-01T12:38:07;4.20;;;1.70;;
70270;SDS011;57680;54.292;18.598;2022-08-01T12:40:40;4.47;;;1.73;;
70270;SDS011;57680;54.292;18.598;2022-08-01T12:43:07;4.00;;;1.60;;
70270;SDS011;57680;54.292;18.598;2022-08-01T12:45:36;7.50;;;1.90;;
70270;SDS011;57680;54.292;18.598;2022-08-01T12:48:10;5.95;;;1.88;;
70270;SDS011;57680;54.292;18.598;2022-08-01T12:50:38;3.67;;;1.83;;
70270;SDS011;57680;54.292;18.598;2022-08-01T12:53:07;5.10;;;2.10;;
70270;SDS011;57680;54.292;18.598;2022-08-01T12:55:33;4.63;;;1.63;;
70270;SDS011;57680;54.292;18.598;2022-08-01T12:58:13;4.83;;;1.73;;
70270;SDS011;57680;54.292;18.598;2022-08-01T13:00:40;4.97;;;1.88;;
70270;SDS011;57680;54.292;18.598;2022-08-01T13:03:10;4.78;;;1.65;;
70270;SDS011;57680;54.292;18.598;2022-08-01T13:05:46;6.65;;;1.90;;
70270;SDS011;57680;54.292;18.598;2022-08-01T13:08:23;8.90;;;2.20;;
70270;SDS011;57680;54.292;18.598;2022-08-01T13:13:37;5.50;;;1.90;;
70270;SDS011;57680;54.292;18.598;2022-08-01T13:16:07;3.53;;;1.75;;
70270;SDS011;57680;54.292;18.598;2022-08-01T13:18:34;6.72;;;1.90;;
70270;SDS011;57680;54.292;18.598;2022-08-01T13:21:13;5.07;;;1.80;;
70270;SDS011;57680;54.292;18.598;2022-08-01T13:23:40;5.77;;;1.80;;
70270;SDS011;57680;54.292;18.598;2022-08-01T13:26:07;4.63;;;1.80;;
70270;SDS011;57680;54.292;18.598;2022-08-01T13:28:33;4.32;;;1.63;;
70270;SDS011;57680;54.292;18.598;2022-08-01T13:31:06;4.67;;;1.57;;
70270;SDS011;57680;54.292;18.598;2022-08-01T13:33:45;4.43;;;1.70;;
70270;SDS011;57680;54.292;18.598;2022-08-01T13:36:12;5.70;;;1.60;;
70270;SDS011;57680;54.292;18.598;2022-08-01T13:38:39;3.30;;;1.40;;
70270;SDS011;57680;54.292;18.598;2022-08-01T13:41:25;5.85;;;2.00;;
70270;SDS011;57680;54.292;18.598;2022-08-01T13:43:51;4.87;;;1.70;;
70270;SDS011;57680;54.292;18.598;2022-08-01T13:46:17;4.15;;;1.80;;
70270;SDS011;57680;54.292;18.598;2022-08-01T13:48:43;6.07;;;2.20;;
70270;SDS011;57680;54.292;18.598;2022-08-01T13:51:08;5.47;;;1.60;;
70270;SDS011;57680;54.292;18.598;2022-08-01T13:53:34;4.85;;;1.70;;
70270;SDS011;57680;54.292;18.598;2022-08-01T13:56:00;3.93;;;1.67;;
70270;SDS011;57680;54.292;18.598;2022-08-01T13:58:26;3.92;;;1.30;;
70270;SDS011;57680;54.292;18.598;2022-08-01T14:00:53;4.10;;;1.60;;
70270;SDS011;57680;54.292;18.598;2022-08-01T14:03:20;5.32;;;1.60;;
70270;SDS011;57680;54.292;18.598;2022-08-01T14:05:46;7.00;;;1.43;;
70270;SDS011;57680;54.292;18.598;2022-08-01T14:08:12;5.43;;;1.52;;
70270;SDS011;57680;54.292;18.598;2022-08-01T14:10:37;3.60;;;1.40;;
70270;SDS011;57680;54.292;18.598;2022-08-01T14:13:03;3.97;;;1.75;;
70270;SDS011;57680;54.292;18.598;2022-08-01T14:15:29;3.73;;;1.70;;
70270;SDS011;57680;54.292;18.598;2022-08-01T14:17:55;3.97;;;1.40;;
70270;SDS011;57680;54.292;18.598;2022-08-01T14:20:21;4.10;;;1.60;;
70270;SDS011;57680;54.292;18.598;2022-08-01T14:22:47;3.93;;;1.60;;
70270;SDS011;57680;54.292;18.598;2022-08-01T14:25:12;4.27;;;1.60;;
70270;SDS011;57680;54.292;18.598;2022-08-01T14:27:38;3.33;;;1.60;;
70270;SDS011;57680;54.292;18.598;2022-08-01T14:30:06;4.03;;;1.40;;
70270;SDS011;57680;54.292;18.598;2022-08-01T14:32:33;11.47;;;1.60;;
70270;SDS011;57680;54.292;18.598;2022-08-01T14:34:59;3.35;;;1.50;;
70270;SDS011;57680;54.292;18.598;2022-08-01T14:37:25;3.37;;;1.40;;
70270;SDS011;57680;54.292;18.598;2022-08-01T14:39:50;6.30;;;1.50;;
70270;SDS011;57680;54.292;18.598;2022-08-01T14:42:16;5.50;;;1.57;;
70270;SDS011;57680;54.292;18.598;2022-08-01T14:44:42;6.33;;;1.60;;
70270;SDS011;57680;54.292;18.598;2022-08-01T14:47:07;5.32;;;1.60;;
70270;SDS011;57680;54.292;18.598;2022-08-01T14:49:33;4.13;;;1.67;;
70270;SDS011;57680;54.292;18.598;2022-08-01T14:51:58;6.32;;;1.70;;
70270;SDS011;57680;54.292;18.598;2022-08-01T14:54:24;5.17;;;1.57;;
70270;SDS011;57680;54.292;18.598;2022-08-01T14:56:50;5.60;;;1.50;;
70270;SDS011;57680;54.292;18.598;2022-08-01T14:59:17;7.23;;;1.70;;
70270;SDS011;57680;54.292;18.598;2022-08-01T15:01:43;5.55;;;1.55;;
70270;SDS011;57680;54.292;18.598;2022-08-01T15:04:09;3.72;;;1.33;;
70270;SDS011;57680;54.292;18.598;2022-08-01T15:06:34;4.03;;;1.47;;
70270;SDS011;57680;54.292;18.598;2022-08-01T15:09:00;6.55;;;1.80;;
70270;SDS011;57680;54.292;18.598;2022-08-01T15:11:26;3.90;;;1.40;;
70270;SDS011;57680;54.292;18.598;2022-08-01T15:13:52;4.33;;;1.57;;
70270;SDS011;57680;54.292;18.598;2022-08-01T15:16:36;4.87;;;1.87;;
70270;SDS011;57680;54.292;18.598;2022-08-01T15:19:02;5.00;;;1.58;;
70270;SDS011;57680;54.292;18.598;2022-08-01T15:21:28;6.30;;;1.60;;
70270;SDS011;57680;54.292;18.598;2022-08-01T15:23:53;6.33;;;1.93;;
70270;SDS011;57680;54.292;18.598;2022-08-01T15:26:19;5.37;;;1.47;;
70270;SDS011;57680;54.292;18.598;2022-08-01T15:28:44;4.38;;;1.52;;
70270;SDS011;57680;54.292;18.598;2022-08-01T15:31:10;5.03;;;1.50;;
70270;SDS011;57680;54.292;18.598;2022-08-01T15:33:35;6.57;;;2.03;;
70270;SDS011;57680;54.292;18.598;2022-08-01T15:36:01;8.05;;;1.80;;